Terminal Aerodrome Forecast
Issued by NWS Quad Cities IA IL

Home | Current Version | Previous Version | Text Only | Print | Product List | Glossary Off
Versions: 1 2 3 4 5 6 7 8 9 10 11 12 13 14 15 16 17

000
FTUS43 KDVN 151500 AAA
TAFDBQ
TAF AMD
KDBQ 151532Z 1516/1612 04004KT P6SM BKN050
      TEMPO 1516/1517 5SM -RA BR SCT012 OVC025
     FM151700 36010KT P6SM VCSH OVC025
      TEMPO 1518/1519 -SHRA
     FM152000 36011KT P6SM BKN035
     FM160000 35003KT P6SM SKC=

USA.gov is the U.S. government's official web portal to all federal, state and local government web resources and services.